Time,TemperatureF,DewpointF,PressureIn,WindDirection,WindDirectionDegrees,WindSpeedMPH,WindSpeedGustMPH,Humidity,HourlyPrecipIn,Conditions,Clouds,dailyrainin,SolarRadiationWatts/m^2,SoftwareType,DateUTC
2013-08-16 01:00:00,63.0,25.0,30.30,ESE,106,15.0,19.0,23,0.00,,,0.00,0.000000,,2013-08-16 07:00:00,
2013-08-16 01:11:00,63.0,25.0,30.30,ESE,106,15.0,19.0,23,0.00,,,0.00,0.000000,,2013-08-16 07:11:00,
2013-08-16 01:42:00,61.0,22.0,30.34,East,97,13.0,19.0,22,0.00,,,0.00,0.000000,,2013-08-16 07:42:00,
2013-08-16 01:52:00,61.0,22.0,30.34,East,97,13.0,19.0,22,0.00,,,0.00,0.000000,,2013-08-16 07:52:00,
2013-08-16 02:01:00,61.0,22.0,30.34,East,97,13.0,19.0,22,0.00,,,0.00,0.000000,,2013-08-16 08:01:00,
2013-08-16 02:11:00,61.0,22.0,30.34,East,97,13.0,19.0,22,0.00,,,0.00,0.000000,,2013-08-16 08:11:00,
2013-08-16 02:42:00,59.0,24.0,30.46,East,96,14.0,17.0,26,0.00,,,0.00,0.000000,,2013-08-16 08:42:00,
2013-08-16 02:52:00,59.0,24.0,30.46,East,96,14.0,17.0,26,0.00,,,0.00,0.000000,,2013-08-16 08:52:00,
2013-08-16 03:01:00,59.0,24.0,30.46,East,96,14.0,17.0,26,0.00,,,0.00,0.000000,,2013-08-16 09:01:00,
2013-08-16 03:11:00,59.0,24.0,30.46,East,96,14.0,17.0,26,0.00,,,0.00,0.000000,,2013-08-16 09:11:00,
2013-08-16 03:12:00,59.0,23.0,30.53,East,100,16.0,19.0,25,0.00,,,0.00,0.000000,,2013-08-16 09:12:00,
2013-08-16 03:42:00,59.0,23.0,30.53,East,100,16.0,19.0,25,0.00,,,0.00,0.000000,,2013-08-16 09:42:00,
2013-08-16 03:53:00,59.0,23.0,30.53,East,100,16.0,19.0,25,0.00,,,0.00,0.000000,,2013-08-16 09:53:00,
2013-08-16 04:03:00,59.0,23.0,30.53,East,100,16.0,19.0,25,0.00,,,0.00,0.000000,,2013-08-16 10:03:00,
2013-08-16 04:12:00,59.0,23.0,30.52,ESE,103,19.0,23.0,25,0.00,,,0.00,0.000000,,2013-08-16 10:12:00,
2013-08-16 04:42:00,59.0,23.0,30.52,ESE,103,19.0,23.0,25,0.00,,,0.00,0.000000,,2013-08-16 10:42:00,
2013-08-16 04:52:00,59.0,23.0,30.52,ESE,103,19.0,23.0,25,0.00,,,0.00,0.000000,,2013-08-16 10:52:00,
2013-08-16 05:02:00,59.0,23.0,30.52,ESE,103,19.0,23.0,25,0.00,,,0.00,0.000000,,2013-08-16 11:02:00,
2013-08-16 05:12:00,58.0,23.0,30.57,ESE,102,18.0,22.0,26,0.00,,,0.00,0.000000,,2013-08-16 11:12:00,
2013-08-16 05:42:00,58.0,23.0,30.57,ESE,102,18.0,22.0,26,0.00,,,0.00,0.000000,,2013-08-16 11:42:00,
2013-08-16 05:52:00,58.0,23.0,30.57,ESE,102,18.0,22.0,26,0.00,,,0.00,0.000000,,2013-08-16 11:52:00,
2013-08-16 06:02:00,58.0,23.0,30.57,ESE,102,18.0,22.0,26,0.00,,,0.00,0.000000,,2013-08-16 12:02:00,
2013-08-16 06:42:00,54.0,22.0,30.61,East,99,17.0,21.0,28,0.00,,,0.00,0.000000,,2013-08-16 12:42:00,
2013-08-16 06:52:00,54.0,22.0,30.61,East,99,17.0,21.0,28,0.00,,,0.00,0.000000,,2013-08-16 12:52:00,
2013-08-16 07:02:00,54.0,22.0,30.61,East,99,17.0,21.0,28,0.00,,,0.00,0.000000,,2013-08-16 13:02:00,
2013-08-16 07:11:00,54.0,22.0,30.61,East,99,17.0,21.0,28,0.00,,,0.00,0.000000,,2013-08-16 13:11:00,
2013-08-16 07:42:00,57.0,23.0,30.62,ESE,103,17.0,22.0,27,0.00,,,0.00,16.000000,,2013-08-16 13:42:00,
2013-08-16 07:53:00,57.0,23.0,30.62,ESE,103,17.0,22.0,27,0.00,,,0.00,16.000000,,2013-08-16 13:53:00,
2013-08-16 08:01:00,57.0,23.0,30.62,ESE,103,17.0,22.0,27,0.00,,,0.00,16.000000,,2013-08-16 14:01:00,
2013-08-16 08:11:00,57.0,23.0,30.62,ESE,103,17.0,22.0,27,0.00,,,0.00,16.000000,,2013-08-16 14:11:00,
2013-08-16 08:12:00,59.0,25.0,30.59,East,96,12.0,19.0,27,0.00,,,-99.99,256.000000,,2013-08-16 14:12:00,
2013-08-16 08:42:00,59.0,25.0,30.59,East,96,12.0,19.0,27,0.00,,,-99.99,256.000000,,2013-08-16 14:42:00,
2013-08-16 08:52:00,59.0,25.0,30.59,East,96,12.0,19.0,27,0.00,,,-99.99,256.000000,,2013-08-16 14:52:00,
2013-08-16 09:01:00,59.0,25.0,30.59,East,96,12.0,19.0,27,0.00,,,-99.99,256.000000,,2013-08-16 15:01:00,
2013-08-16 09:12:00,62.0,25.0,30.36,East,92,10.0,16.0,24,0.00,,,0.00,520.000000,,2013-08-16 15:12:00,
2013-08-16 09:43:00,62.0,25.0,30.36,East,92,10.0,16.0,24,0.00,,,0.00,520.000000,,2013-08-16 15:43:00,
2013-08-16 09:56:00,62.0,25.0,30.36,East,92,10.0,16.0,24,0.00,,,0.00,520.000000,,2013-08-16 15:56:00,
2013-08-16 10:04:00,62.0,25.0,30.36,East,92,10.0,16.0,24,0.00,,,0.00,520.000000,,2013-08-16 16:04:00,
2013-08-16 10:12:00,70.0,26.0,30.17,East,82,4.0,13.0,19,0.00,,,0.00,753.000000,,2013-08-16 16:12:00,
2013-08-16 10:44:00,70.0,26.0,30.17,East,82,4.0,13.0,19,0.00,,,0.00,753.000000,,2013-08-16 16:44:00,
2013-08-16 10:57:00,70.0,26.0,30.17,East,82,4.0,13.0,19,0.00,,,0.00,753.000000,,2013-08-16 16:57:00,
2013-08-16 11:03:00,70.0,26.0,30.17,East,82,4.0,13.0,19,0.00,,,0.00,753.000000,,2013-08-16 17:03:00,
2013-08-16 11:12:00,79.0,32.0,29.90,WNW,303,1.0,7.0,18,0.00,,,0.00,950.000000,,2013-08-16 17:12:00,
2013-08-16 11:47:00,79.0,32.0,29.90,WNW,303,1.0,7.0,18,0.00,,,0.00,950.000000,,2013-08-16 17:47:00,
2013-08-16 12:00:00,79.0,32.0,29.90,WNW,303,1.0,7.0,18,0.00,,,0.00,950.000000,,2013-08-16 18:00:00,
2013-08-16 12:06:00,79.0,32.0,29.90,WNW,303,1.0,7.0,18,0.00,,,0.00,950.000000,,2013-08-16 18:06:00,
2013-08-16 12:12:00,78.0,25.0,29.71,West,271,4.0,9.0,14,0.00,,,0.00,1099.000000,,2013-08-16 18:12:00,
2013-08-16 12:50:00,-999.0,-99.9,29.71,West,271,4.0,9.0,14,0.00,,,0.00,1099.000000,,2013-08-16 18:50:00,
2013-08-16 13:02:00,78.0,25.0,29.71,West,271,4.0,9.0,14,0.00,,,0.00,1099.000000,,2013-08-16 19:02:00,
2013-08-16 13:46:00,84.0,24.0,29.54,West,275,7.0,11.0,11,0.00,,,0.00,1185.000000,,2013-08-16 19:46:00,
2013-08-16 14:11:00,84.0,24.0,29.54,West,275,7.0,11.0,11,0.00,,,0.00,1185.000000,,2013-08-16 20:11:00,
2013-08-16 15:40:00,-999.0,-99.9,29.27,WNW,292,10.0,19.0,-999,-99.99,,,0.00,1202.000000,,2013-08-16 21:40:00,
2013-08-16 17:42:00,84.0,22.0,29.30,NNW,327,7.0,16.0,10,-99.99,,,0.00,821.000000,,2013-08-16 23:42:00,
2013-08-16 17:52:00,84.0,22.0,29.30,NNW,327,7.0,16.0,10,-99.99,,,0.00,821.000000,,2013-08-16 23:52:00,
2013-08-16 18:01:00,84.0,22.0,29.30,NNW,327,7.0,16.0,10,-99.99,,,0.00,821.000000,,2013-08-17 00:01:00,
2013-08-16 18:11:00,84.0,22.0,29.30,NNW,327,7.0,16.0,10,-99.99,,,0.00,821.000000,,2013-08-17 00:11:00,
2013-08-16 18:42:00,77.0,26.0,29.58,NNW,340,4.0,17.0,15,0.00,,,0.00,331.000000,,2013-08-17 00:42:00,
2013-08-16 18:52:00,77.0,26.0,29.58,NNW,340,4.0,17.0,15,0.00,,,0.00,331.000000,,2013-08-17 00:52:00,
2013-08-16 19:01:00,77.0,26.0,29.58,NNW,340,4.0,17.0,15,0.00,,,0.00,331.000000,,2013-08-17 01:01:00,
2013-08-16 19:11:00,77.0,26.0,29.58,NNW,340,4.0,17.0,15,0.00,,,0.00,331.000000,,2013-08-17 01:11:00,
2013-08-16 19:42:00,72.0,20.0,29.70,NNW,338,7.0,15.0,14,0.00,,,0.00,147.000000,,2013-08-17 01:42:00,
2013-08-16 19:52:00,72.0,20.0,29.70,NNW,338,7.0,15.0,14,0.00,,,0.00,147.000000,,2013-08-17 01:52:00,
2013-08-16 20:01:00,72.0,20.0,29.70,NNW,338,7.0,15.0,14,0.00,,,0.00,147.000000,,2013-08-17 02:01:00,
2013-08-16 20:11:00,72.0,20.0,29.70,NNW,338,7.0,15.0,14,0.00,,,0.00,147.000000,,2013-08-17 02:11:00,
2013-08-16 20:42:00,68.0,15.0,29.90,NW,324,6.0,11.0,13,0.00,,,0.00,23.000000,,2013-08-17 02:42:00,
2013-08-16 20:52:00,68.0,15.0,29.90,NW,324,6.0,11.0,13,0.00,,,0.00,23.000000,,2013-08-17 02:52:00,
2013-08-16 21:01:00,68.0,15.0,29.90,NW,324,6.0,11.0,13,0.00,,,0.00,23.000000,,2013-08-17 03:01:00,
2013-08-16 21:11:00,68.0,15.0,29.90,NW,324,6.0,11.0,13,0.00,,,0.00,23.000000,,2013-08-17 03:11:00,
2013-08-16 21:12:00,64.0,14.0,30.14,NW,308,6.0,9.0,14,0.00,,,0.00,0.000000,,2013-08-17 03:12:00,
2013-08-16 21:43:00,64.0,14.0,30.14,NW,308,6.0,9.0,14,0.00,,,0.00,0.000000,,2013-08-17 03:43:00,
2013-08-16 21:53:00,64.0,14.0,30.14,NW,308,6.0,9.0,14,0.00,,,0.00,0.000000,,2013-08-17 03:53:00,
2013-08-16 22:03:00,64.0,14.0,30.14,NW,308,6.0,9.0,14,0.00,,,0.00,0.000000,,2013-08-17 04:03:00,
2013-08-16 22:12:00,64.0,17.0,30.24,NNW,327,6.0,13.0,16,0.00,,,0.00,0.000000,,2013-08-17 04:12:00,
2013-08-16 22:44:00,64.0,17.0,30.24,NNW,327,6.0,13.0,16,0.00,,,0.00,0.000000,,2013-08-17 04:44:00,
2013-08-16 22:53:00,64.0,17.0,30.24,NNW,327,6.0,13.0,16,0.00,,,0.00,0.000000,,2013-08-17 04:53:00,
2013-08-16 23:03:00,64.0,17.0,30.24,NNW,327,6.0,13.0,16,0.00,,,0.00,0.000000,,2013-08-17 05:03:00,
2013-08-16 23:12:00,65.0,16.0,30.32,NW,326,0.0,7.0,15,0.00,,,0.00,0.000000,,2013-08-17 05:12:00,
2013-08-16 23:42:00,65.0,16.0,30.32,NW,326,0.0,7.0,15,0.00,,,0.00,0.000000,,2013-08-17 05:42:00,
2013-08-16 23:52:00,65.0,16.0,30.32,NW,326,0.0,7.0,15,0.00,,,0.00,0.000000,,2013-08-17 05:52:00,